createdAt,value
2017-11-21T00:00:04.870Z,99.99
2017-11-21T00:00:45.426Z,99.99
2017-11-21T00:01:26.024Z,99.99
2017-11-21T00:02:06.614Z,99.99
2017-11-21T00:02:47.195Z,99.99
2017-11-21T00:03:27.720Z,99.99
2017-11-21T00:04:08.276Z,99.99
2017-11-21T00:04:49.029Z,99.99
2017-11-21T00:05:29.596Z,99.99
2017-11-21T00:06:10.185Z,99.99
2017-11-21T00:06:50.758Z,99.99
2017-11-21T00:07:31.322Z,99.99
2017-11-21T00:08:11.946Z,99.99
2017-11-21T00:08:52.480Z,99.99
2017-11-21T00:09:33.048Z,99.99
2017-11-21T00:10:13.631Z,99.99
2017-11-21T00:10:54.207Z,99.99
2017-11-21T00:11:34.763Z,99.99
2017-11-21T00:12:15.314Z,99.99
2017-11-21T00:12:55.893Z,99.99
2017-11-21T00:13:36.472Z,99.99
2017-11-21T00:14:17.050Z,99.99
2017-11-21T00:14:57.610Z,99.99
2017-11-21T00:15:38.179Z,99.99
2017-11-21T00:16:18.761Z,99.99
2017-11-21T00:16:59.331Z,99.99
2017-11-21T00:17:39.939Z,99.99
2017-11-21T00:18:20.490Z,99.99
2017-11-21T00:19:01.056Z,99.99
2017-11-21T00:19:41.603Z,99.99
2017-11-21T00:20:22.154Z,99.99
2017-11-21T00:21:02.731Z,99.99
2017-11-21T00:21:43.311Z,99.99
2017-11-21T00:22:24.877Z,99.99
2017-11-21T00:23:05.590Z,99.99
2017-11-21T00:23:46.168Z,99.99
2017-11-21T00:24:26.743Z,99.99
2017-11-21T00:25:07.298Z,99.99
2017-11-21T00:25:47.872Z,99.99
2017-11-21T00:26:28.436Z,99.99
2017-11-21T00:27:09.005Z,99.99
2017-11-21T00:27:49.555Z,99.99
2017-11-21T00:28:30.123Z,99.99
2017-11-21T00:29:10.740Z,99.99
2017-11-21T00:29:51.296Z,99.99
2017-11-21T00:30:31.867Z,99.99
2017-11-21T00:31:12.434Z,99.99
2017-11-21T00:31:52.989Z,99.99
2017-11-21T00:32:33.541Z,99.99
2017-11-21T00:33:14.113Z,99.99
2017-11-21T00:33:54.677Z,99.99
2017-11-21T00:34:35.239Z,99.99
2017-11-21T00:35:15.799Z,99.99
2017-11-21T00:35:56.385Z,99.99
2017-11-21T00:36:36.955Z,99.99
2017-11-21T00:37:17.519Z,99.99
2017-11-21T00:37:58.084Z,99.99
2017-11-21T00:38:38.646Z,99.99
2017-11-21T00:39:19.223Z,99.99
2017-11-21T00:39:59.776Z,99.99
2017-11-21T00:40:40.321Z,99.99
2017-11-21T00:41:20.888Z,99.99
2017-11-21T00:42:01.474Z,99.99
2017-11-21T00:42:42.043Z,99.99
2017-11-21T00:43:22.615Z,99.99
2017-11-21T00:44:03.190Z,99.99
2017-11-21T00:44:43.755Z,99.99
2017-11-21T00:45:24.326Z,99.99
2017-11-21T00:46:04.883Z,99.99
2017-11-21T00:46:45.474Z,99.99
2017-11-21T00:47:26.042Z,99.99
2017-11-21T00:48:06.601Z,99.99
2017-11-21T00:48:47.191Z,99.99
2017-11-21T00:49:27.781Z,99.99
2017-11-21T00:50:08.363Z,99.99
2017-11-21T00:50:48.905Z,99.99
2017-11-21T00:51:29.472Z,99.99
2017-11-21T00:52:10.053Z,99.99
2017-11-21T00:52:50.607Z,99.99
2017-11-21T00:53:31.173Z,99.99
2017-11-21T00:54:11.741Z,99.99
2017-11-21T00:54:52.314Z,99.99
2017-11-21T00:55:32.872Z,99.99
2017-11-21T00:56:13.419Z,99.99
2017-11-21T00:56:54.007Z,99.99
2017-11-21T00:57:34.558Z,99.99
2017-11-21T00:58:15.137Z,99.99
2017-11-21T00:58:55.701Z,99.99
2017-11-21T00:59:36.267Z,99.99
2017-11-21T01:00:16.875Z,99.99
2017-11-21T01:02:30.181Z,99.99
2017-11-21T01:03:10.743Z,99.99
2017-11-21T01:03:51.293Z,99.99
2017-11-21T01:04:31.880Z,99.99
2017-11-21T01:05:12.455Z,99.99
2017-11-21T01:05:53.018Z,99.99
2017-11-21T01:06:33.575Z,99.99
2017-11-21T01:07:14.134Z,99.99
2017-11-21T01:07:54.682Z,99.99
2017-11-21T01:08:35.252Z,99.99
2017-11-21T01:09:15.804Z,99.99
2017-11-21T01:09:56.367Z,99.99
2017-11-21T01:10:36.913Z,99.99
2017-11-21T01:11:17.508Z,99.99
2017-11-21T01:11:58.077Z,99.99
2017-11-21T01:12:38.617Z,99.99
2017-11-21T01:13:19.174Z,99.99
2017-11-21T01:13:59.729Z,99.99
2017-11-21T01:14:40.289Z,99.99
2017-11-21T01:15:20.860Z,99.99
2017-11-21T01:16:01.434Z,99.99
2017-11-21T01:16:41.988Z,99.99
2017-11-21T01:17:22.570Z,99.99
2017-11-21T01:18:03.131Z,99.99
2017-11-21T01:18:43.678Z,99.99
2017-11-21T01:19:24.226Z,99.99
2017-11-21T01:20:04.803Z,99.99
2017-11-21T01:20:45.363Z,99.99
2017-11-21T01:21:25.918Z,99.99
2017-11-21T01:22:06.447Z,99.99
2017-11-21T01:22:47.024Z,99.99
2017-11-21T01:23:27.592Z,99.99
2017-11-21T01:24:08.178Z,99.99
2017-11-21T01:24:48.714Z,99.99
2017-11-21T01:25:29.282Z,99.99
2017-11-21T01:26:09.863Z,99.99
2017-11-21T01:26:50.405Z,99.99
2017-11-21T01:27:30.967Z,99.99
2017-11-21T01:28:11.521Z,99.99
2017-11-21T01:28:52.071Z,99.99
2017-11-21T01:29:32.604Z,99.99
2017-11-21T01:30:13.185Z,99.99
2017-11-21T01:30:53.779Z,99.99
2017-11-21T01:31:34.330Z,99.99
2017-11-21T01:32:14.896Z,99.99
2017-11-21T01:32:55.456Z,99.99
2017-11-21T01:33:36.011Z,99.99
2017-11-21T01:34:16.659Z,99.99
2017-11-21T01:34:57.218Z,99.99
2017-11-21T01:35:37.785Z,99.99
2017-11-21T01:36:18.395Z,99.99
2017-11-21T01:36:58.949Z,99.99
2017-11-21T01:37:39.522Z,99.99
2017-11-21T01:38:20.065Z,99.99
2017-11-21T01:39:00.618Z,99.99
2017-11-21T01:39:41.183Z,99.99
2017-11-21T01:40:22.060Z,99.99
2017-11-21T01:41:02.653Z,99.99
2017-11-21T01:41:43.206Z,99.99
2017-11-21T01:42:23.817Z,99.99
2017-11-21T01:43:04.392Z,99.99
2017-11-21T01:43:44.966Z,99.99
2017-11-21T01:44:25.534Z,99.99
2017-11-21T01:45:06.089Z,99.99
2017-11-21T01:45:46.657Z,99.99
2017-11-21T01:46:27.193Z,99.99
2017-11-21T01:47:07.748Z,99.99
2017-11-21T01:47:48.298Z,99.99
2017-11-21T01:48:28.901Z,99.99
2017-11-21T01:49:09.474Z,99.99
2017-11-21T01:49:50.031Z,99.99
2017-11-21T01:50:30.606Z,99.99
2017-11-21T01:51:11.151Z,99.99
2017-11-21T01:51:51.710Z,99.99
2017-11-21T01:52:32.269Z,99.99
2017-11-21T01:53:12.833Z,99.99
2017-11-21T01:53:53.397Z,99.99
2017-11-21T01:54:33.968Z,99.99
2017-11-21T01:55:14.540Z,99.99
2017-11-21T01:55:55.108Z,99.99
2017-11-21T01:56:35.665Z,99.99
2017-11-21T01:57:16.215Z,99.99
2017-11-21T01:57:56.773Z,99.99
2017-11-21T01:58:37.345Z,99.99
2017-11-21T01:59:17.933Z,99.99
2017-11-21T01:59:58.486Z,99.99
2017-11-21T02:00:39.331Z,99.99
2017-11-21T02:01:19.878Z,99.99
2017-11-21T02:02:00.451Z,99.99
2017-11-21T02:02:41.019Z,99.99
2017-11-21T02:03:21.594Z,99.99
2017-11-21T02:04:02.173Z,99.99
2017-11-21T02:04:42.715Z,99.99
2017-11-21T02:05:23.273Z,99.99
2017-11-21T02:06:03.850Z,99.99
2017-11-21T02:06:44.409Z,99.99
2017-11-21T02:07:25.002Z,99.99
2017-11-21T02:08:05.564Z,99.99
2017-11-21T02:08:46.125Z,99.99
2017-11-21T02:09:26.700Z,99.99
2017-11-21T02:10:07.251Z,99.99
2017-11-21T02:10:47.816Z,99.99
2017-11-21T02:11:28.361Z,99.99
2017-11-21T02:12:08.932Z,99.99
2017-11-21T02:12:49.494Z,99.99
2017-11-21T02:13:30.051Z,99.99
2017-11-21T02:14:10.611Z,99.99
2017-11-21T02:14:51.158Z,99.99
2017-11-21T02:15:31.715Z,99.99
2017-11-21T02:16:12.273Z,99.99
2017-11-21T02:16:52.826Z,99.99
2017-11-21T02:17:33.411Z,99.99
2017-11-21T02:18:13.994Z,99.99
2017-11-21T02:18:54.579Z,99.99
2017-11-21T02:19:35.193Z,99.99
2017-11-21T02:20:15.707Z,99.99
2017-11-21T02:20:56.268Z,99.99
2017-11-21T02:21:36.830Z,99.99
2017-11-21T02:22:17.393Z,99.99
2017-11-21T02:22:57.956Z,99.99
2017-11-21T02:23:38.516Z,99.99
2017-11-21T02:24:19.065Z,99.99
2017-11-21T02:24:59.623Z,99.99
2017-11-21T02:25:40.190Z,99.99
2017-11-21T02:26:20.763Z,99.99
2017-11-21T02:27:01.309Z,99.99
2017-11-21T02:27:41.864Z,99.99
2017-11-21T02:28:22.445Z,99.99
2017-11-21T02:29:03.026Z,99.99
2017-11-21T02:29:43.589Z,99.99
2017-11-21T02:30:24.140Z,99.99
2017-11-21T02:31:04.701Z,99.99
2017-11-21T02:31:45.291Z,99.99
2017-11-21T02:32:25.855Z,99.99
2017-11-21T02:33:06.419Z,99.99
2017-11-21T02:33:46.986Z,99.99
2017-11-21T02:34:27.535Z,99.99
2017-11-21T02:35:08.107Z,99.99
2017-11-21T02:35:48.641Z,99.99
2017-11-21T02:36:29.183Z,99.99
2017-11-21T02:37:09.765Z,99.99
2017-11-21T02:37:50.331Z,99.99
2017-11-21T02:38:30.898Z,99.99
2017-11-21T02:39:11.491Z,99.99
2017-11-21T02:39:52.038Z,99.99
2017-11-21T02:40:32.576Z,99.99
2017-11-21T02:41:13.131Z,99.99
2017-11-21T02:41:53.688Z,99.99
2017-11-21T02:42:34.227Z,99.99
2017-11-21T02:43:14.791Z,99.99
2017-11-21T02:43:55.356Z,99.99
2017-11-21T02:44:35.922Z,99.99
2017-11-21T02:45:16.484Z,99.99
2017-11-21T02:45:57.030Z,99.99
2017-11-21T02:46:37.558Z,99.99
2017-11-21T02:47:18.107Z,99.99
2017-11-21T02:47:58.746Z,99.99
2017-11-21T02:48:39.309Z,99.99
2017-11-21T02:49:19.863Z,99.99
2017-11-21T02:50:00.421Z,99.99
2017-11-21T02:50:40.980Z,99.99
2017-11-21T02:51:21.549Z,99.99
2017-11-21T02:52:02.122Z,99.99
2017-11-21T02:52:42.698Z,99.99
2017-11-21T02:53:23.251Z,99.99
2017-11-21T02:54:03.820Z,99.99
2017-11-21T02:54:44.351Z,99.99
2017-11-21T02:55:24.886Z,99.99
2017-11-21T02:56:05.408Z,99.99
2017-11-21T02:56:45.972Z,99.99
2017-11-21T02:57:26.533Z,99.99
2017-11-21T02:58:07.137Z,99.99
2017-11-21T02:58:47.698Z,99.99
2017-11-21T02:59:28.267Z,99.99
2017-11-21T03:00:08.821Z,99.99
2017-11-21T03:00:49.421Z,99.99
2017-11-21T03:01:29.969Z,99.99
2017-11-21T03:02:10.543Z,99.99
2017-11-21T03:02:51.194Z,99.99
2017-11-21T03:03:31.740Z,99.99
2017-11-21T03:04:12.312Z,99.99
2017-11-21T03:04:52.864Z,99.99
2017-11-21T03:05:33.427Z,99.99
2017-11-21T03:06:13.988Z,99.99
2017-11-21T03:06:54.567Z,99.99
2017-11-21T03:07:35.123Z,99.99
2017-11-21T03:08:15.689Z,99.99
2017-11-21T03:08:56.258Z,99.99
2017-11-21T03:09:36.828Z,99.99
2017-11-21T03:10:17.383Z,99.99
2017-11-21T03:10:57.999Z,99.99
2017-11-21T03:11:38.558Z,99.99
2017-11-21T03:12:19.107Z,99.99
2017-11-21T03:12:59.655Z,99.99
2017-11-21T03:13:40.212Z,99.99
2017-11-21T03:14:20.743Z,99.99
2017-11-21T03:15:01.317Z,99.99
2017-11-21T03:15:41.873Z,99.99
2017-11-21T03:16:22.431Z,99.99
2017-11-21T03:17:02.996Z,99.99
2017-11-21T03:17:43.522Z,99.99
2017-11-21T03:19:31.533Z,99.99
2017-11-21T03:20:12.083Z,99.99
2017-11-21T03:20:52.674Z,99.99
2017-11-21T03:21:33.212Z,99.99
2017-11-21T03:22:13.950Z,99.98
2017-11-21T03:22:54.500Z,99.99
2017-11-21T03:23:35.061Z,99.79
2017-11-21T03:24:15.608Z,99.89
2017-11-21T03:24:56.156Z,99.98
2017-11-21T03:25:36.724Z,99.99
2017-11-21T03:26:17.288Z,99.89
2017-11-21T03:26:57.844Z,99.98
2017-11-21T03:27:38.383Z,99.89
2017-11-21T03:28:18.936Z,99.69
2017-11-21T03:28:59.481Z,99.79
2017-11-21T03:29:40.066Z,99.89
2017-11-21T03:30:20.622Z,99.99
2017-11-21T03:31:01.194Z,99.99
2017-11-21T03:31:41.756Z,99.99
2017-11-21T03:32:22.308Z,99.99
2017-11-21T03:33:02.868Z,99.79
2017-11-21T03:33:43.405Z,99.6
2017-11-21T03:34:23.955Z,99.89
2017-11-21T03:35:04.504Z,99.99
2017-11-21T03:35:45.047Z,99.51
2017-11-21T03:36:25.613Z,99.22
2017-11-21T03:37:06.173Z,99.22
2017-11-21T03:37:46.738Z,99.6
2017-11-21T03:38:27.294Z,99.13
2017-11-21T03:39:07.832Z,99.41
2017-11-21T03:39:48.383Z,99.41
2017-11-21T03:40:28.987Z,99.41
2017-11-21T03:41:09.519Z,99.32
2017-11-21T03:41:50.086Z,99.6
2017-11-21T03:42:30.659Z,99.22
2017-11-21T03:43:11.216Z,99.41
2017-11-21T03:43:51.771Z,99.51
2017-11-21T03:44:32.355Z,99.32
2017-11-21T03:45:12.906Z,99.03
2017-11-21T03:45:53.474Z,99.69
2017-11-21T03:46:34.034Z,99.41
2017-11-21T03:47:14.582Z,99.89
2017-11-21T03:47:55.149Z,99.69
2017-11-21T03:48:35.721Z,99.22
2017-11-21T03:49:16.285Z,99.32
2017-11-21T03:49:56.836Z,98.94
2017-11-21T03:50:37.402Z,99.69
2017-11-21T03:51:17.969Z,98.94
2017-11-21T03:51:58.518Z,98.74
2017-11-21T03:52:39.088Z,98.84
2017-11-21T03:53:19.638Z,99.03
2017-11-21T03:54:00.192Z,99.32
2017-11-21T03:54:40.762Z,99.13
2017-11-21T03:55:21.322Z,99.41
2017-11-21T03:56:01.890Z,98.94
2017-11-21T03:56:42.481Z,98.65
2017-11-21T03:57:23.044Z,98.55
2017-11-21T03:58:03.609Z,98.36
2017-11-21T03:58:44.165Z,98.27
2017-11-21T03:59:24.708Z,98.27
2017-11-21T04:00:05.278Z,98.36
2017-11-21T04:00:45.820Z,98.94
2017-11-21T04:01:26.380Z,98.46
2017-11-21T04:02:06.942Z,98.36
2017-11-21T04:02:47.494Z,98.36
2017-11-21T04:03:28.029Z,98.65
2017-11-21T04:04:08.583Z,98.65
2017-11-21T04:04:49.148Z,98.94
2017-11-21T04:05:29.714Z,99.03
2017-11-21T04:06:10.428Z,98.36
2017-11-21T04:06:51.026Z,98.69
2017-11-21T04:07:31.553Z,99.22
2017-11-21T04:08:12.117Z,98.74
2017-11-21T04:08:52.687Z,98.94
2017-11-21T04:09:33.259Z,98.46
2017-11-21T04:10:13.804Z,98.55
2017-11-21T04:10:54.380Z,98.36
2017-11-21T04:11:34.932Z,98.55
2017-11-21T04:12:15.501Z,98.74
2017-11-21T04:12:56.084Z,97.89
2017-11-21T04:13:36.629Z,97.99
2017-11-21T04:14:17.181Z,97.89
2017-11-21T04:14:57.731Z,97.99
2017-11-21T04:15:38.280Z,97.89
2017-11-21T04:16:18.839Z,97.31
2017-11-21T04:16:59.404Z,97.41
2017-11-21T04:17:39.965Z,97.7
2017-11-21T04:18:20.555Z,97.31
2017-11-21T04:19:01.096Z,97.7
2017-11-21T04:19:41.645Z,97.7
2017-11-21T04:20:22.221Z,97.6
2017-11-21T04:21:02.785Z,97.22
2017-11-21T04:21:43.343Z,97.31
2017-11-21T04:22:23.896Z,98.08
2017-11-21T04:23:04.458Z,97.6
2017-11-21T04:23:45.072Z,97.6
2017-11-21T04:24:25.642Z,97.7
2017-11-21T04:25:06.196Z,97.6
2017-11-21T04:25:46.741Z,97.13
2017-11-21T04:26:27.289Z,97.13
2017-11-21T04:27:07.841Z,96.55
2017-11-21T04:27:48.391Z,97.03
2017-11-21T04:28:28.943Z,96.27
2017-11-21T04:29:09.497Z,96.75
2017-11-21T04:29:50.056Z,96.55
2017-11-21T04:30:30.617Z,96.75
2017-11-21T04:31:11.216Z,96.75
2017-11-21T04:31:51.781Z,96.75
2017-11-21T04:32:32.368Z,96.84
2017-11-21T04:33:12.918Z,95.98
2017-11-21T04:33:53.470Z,96.36
2017-11-21T04:34:34.021Z,96.75
2017-11-21T04:35:14.593Z,96.36
2017-11-21T04:35:55.131Z,96.46
2017-11-21T04:36:35.695Z,96.94
2017-11-21T04:37:16.243Z,96.55
2017-11-21T04:37:56.823Z,96.46
2017-11-21T04:38:37.365Z,96.36
2017-11-21T04:39:17.951Z,96.08
2017-11-21T04:39:58.506Z,96.27
2017-11-21T04:40:39.069Z,96.36
2017-11-21T04:41:19.646Z,96.17
2017-11-21T04:42:00.192Z,95.79
2017-11-21T04:42:40.758Z,95.98
2017-11-21T04:43:21.292Z,95.98
2017-11-21T04:44:01.888Z,95.89
2017-11-21T04:44:42.427Z,95.79
2017-11-21T04:45:22.981Z,95.51
2017-11-21T04:46:03.538Z,96.17
2017-11-21T04:46:44.132Z,96.36
2017-11-21T04:47:24.748Z,96.17
2017-11-21T04:48:05.293Z,96.84
2017-11-21T04:48:45.851Z,96.94
2017-11-21T04:49:26.421Z,96.55
2017-11-21T04:50:07.014Z,96.84
2017-11-21T04:50:47.563Z,96.94
2017-11-21T04:51:28.136Z,97.31
2017-11-21T04:52:08.685Z,97.31
2017-11-21T04:52:49.252Z,97.79
2017-11-21T04:53:29.808Z,97.99
2017-11-21T04:54:10.366Z,97.79
2017-11-21T04:54:51.002Z,98.46
2017-11-21T04:55:31.557Z,98.74
2017-11-21T04:56:12.111Z,98.65
2017-11-21T04:56:52.789Z,98.65
2017-11-21T04:57:33.292Z,98.36
2017-11-21T04:58:13.852Z,99.03
2017-11-21T04:58:54.397Z,98.74
2017-11-21T04:59:34.949Z,98.94
2017-11-21T05:00:15.503Z,98.65
2017-11-21T05:00:56.050Z,99.69
2017-11-21T05:01:36.613Z,99.41
2017-11-21T05:02:17.178Z,99.22
2017-11-21T05:02:57.712Z,99.99
2017-11-21T05:03:38.274Z,99.51
2017-11-21T05:04:18.820Z,99.51
2017-11-21T05:04:59.382Z,99.6
2017-11-21T05:05:39.942Z,99.69
2017-11-21T05:06:20.487Z,99.79
2017-11-21T05:07:01.038Z,99.99
2017-11-21T05:07:41.581Z,99.99
2017-11-21T05:08:22.150Z,99.89
2017-11-21T05:09:02.706Z,99.69
2017-11-21T05:09:43.282Z,99.99
2017-11-21T05:10:23.835Z,99.99
2017-11-21T05:11:04.405Z,99.99
2017-11-21T05:11:44.984Z,99.99
2017-11-21T05:12:25.536Z,99.99
2017-11-21T05:13:06.094Z,99.99
2017-11-21T05:13:46.643Z,99.99
2017-11-21T05:14:27.205Z,99.99
2017-11-21T05:15:07.793Z,99.99
2017-11-21T05:15:48.379Z,99.99
2017-11-21T05:16:28.909Z,99.99
2017-11-21T05:17:09.470Z,99.99
2017-11-21T05:17:50.029Z,99.99
2017-11-21T05:18:30.583Z,99.99
2017-11-21T05:19:11.156Z,99.99
2017-11-21T05:19:51.712Z,99.99
2017-11-21T05:20:32.264Z,99.99
2017-11-21T05:21:12.936Z,99.99
2017-11-21T05:21:53.501Z,99.99
2017-11-21T05:22:34.056Z,99.99
2017-11-21T05:23:14.621Z,99.99
2017-11-21T05:23:55.175Z,99.99
2017-11-21T05:24:35.732Z,99.99
2017-11-21T05:25:16.329Z,99.99
2017-11-21T05:25:56.893Z,99.99
2017-11-21T05:26:37.447Z,99.99
2017-11-21T05:27:18.021Z,99.99
2017-11-21T05:27:58.565Z,99.99
2017-11-21T05:28:39.119Z,99.99
2017-11-21T05:29:19.682Z,99.99
2017-11-21T05:30:00.235Z,99.99
2017-11-21T05:30:40.788Z,99.99
2017-11-21T05:31:21.336Z,99.99
2017-11-21T05:32:01.895Z,99.99
2017-11-21T05:32:42.468Z,99.99
2017-11-21T05:33:23.045Z,99.99
2017-11-21T05:34:03.599Z,99.99
2017-11-21T05:34:44.180Z,99.99
2017-11-21T05:35:24.740Z,99.99
2017-11-21T05:36:05.298Z,99.99
2017-11-21T05:36:45.855Z,99.99
2017-11-21T05:37:26.414Z,99.99
2017-11-21T05:38:06.997Z,99.99
2017-11-21T05:38:47.573Z,99.99
2017-11-21T05:39:28.142Z,99.99
2017-11-21T05:40:08.689Z,99.99
2017-11-21T05:40:49.254Z,99.99
2017-11-21T05:41:29.827Z,99.99
2017-11-21T05:42:10.386Z,99.99
2017-11-21T05:42:50.934Z,99.99
2017-11-21T05:43:31.490Z,99.99
2017-11-21T05:44:12.037Z,99.99
2017-11-21T05:44:52.595Z,99.99
2017-11-21T05:45:33.150Z,99.99
2017-11-21T05:46:13.695Z,99.99
2017-11-21T05:46:54.253Z,99.99
2017-11-21T05:47:34.819Z,99.99
2017-11-21T05:48:15.369Z,99.79
2017-11-21T05:48:55.936Z,99.99
2017-11-21T05:49:36.482Z,99.89
2017-11-21T05:50:17.037Z,99.69
2017-11-21T05:50:57.612Z,99.89
2017-11-21T05:51:38.165Z,99.79
2017-11-21T05:52:18.718Z,99.89
2017-11-21T05:52:59.313Z,99.99
2017-11-21T05:53:39.873Z,99.99
2017-11-21T05:54:20.427Z,99.98
2017-11-21T05:55:00.990Z,99.99
2017-11-21T05:55:41.633Z,99.99
2017-11-21T05:56:22.222Z,99.99
2017-11-21T05:57:02.754Z,99.69
2017-11-21T05:57:43.295Z,99.99
2017-11-21T05:58:23.861Z,99.99
2017-11-21T05:59:04.409Z,99.98
2017-11-21T05:59:44.982Z,99.99
2017-11-21T06:00:25.550Z,99.99
2017-11-21T06:01:06.107Z,99.89
2017-11-21T06:01:46.714Z,99.79
2017-11-21T06:02:27.260Z,99.99
2017-11-21T06:03:07.841Z,99.99
2017-11-21T06:03:48.396Z,99.99
2017-11-21T06:04:28.965Z,99.99
2017-11-21T06:05:09.508Z,99.99
2017-11-21T06:05:50.066Z,99.99
2017-11-21T06:06:30.666Z,99.99
2017-11-21T06:07:11.227Z,99.98
2017-11-21T06:07:51.808Z,99.69
2017-11-21T06:08:32.365Z,99.98
2017-11-21T06:09:12.899Z,99.99
2017-11-21T06:09:53.447Z,99.99
2017-11-21T06:10:33.991Z,99.99
2017-11-21T06:11:14.558Z,99.79
2017-11-21T06:11:55.131Z,99.99
2017-11-21T06:12:35.667Z,99.99
2017-11-21T06:13:16.252Z,99.99
2017-11-21T06:13:56.821Z,99.69
2017-11-21T06:14:37.370Z,99.99
2017-11-21T06:15:17.952Z,99.99
2017-11-21T06:15:58.554Z,99.99
2017-11-21T06:16:39.109Z,99.99
2017-11-21T06:17:19.665Z,99.98
2017-11-21T06:18:00.260Z,99.99
2017-11-21T06:18:40.809Z,99.99
2017-11-21T06:19:21.392Z,99.99
2017-11-21T06:20:01.953Z,99.99
2017-11-21T06:20:42.501Z,99.99
2017-11-21T06:21:23.029Z,99.99
2017-11-21T06:22:03.576Z,99.99
2017-11-21T06:22:44.126Z,99.99
2017-11-21T06:23:24.677Z,99.99
2017-11-21T06:24:05.232Z,99.99
2017-11-21T06:24:45.814Z,99.99
2017-11-21T06:25:26.501Z,99.99
2017-11-21T06:26:07.066Z,99.99
2017-11-21T06:26:47.576Z,99.99
2017-11-21T06:27:28.135Z,99.99
2017-11-21T06:28:08.691Z,99.99
2017-11-21T06:28:49.236Z,99.99
2017-11-21T06:29:29.794Z,99.99
2017-11-21T06:30:10.346Z,99.99
2017-11-21T06:30:50.927Z,99.99
2017-11-21T06:31:31.518Z,99.99
2017-11-21T06:32:12.066Z,99.99
2017-11-21T06:32:52.763Z,99.99
2017-11-21T06:33:33.239Z,99.99
2017-11-21T06:34:13.793Z,99.99
2017-11-21T06:34:54.353Z,99.99
2017-11-21T06:35:34.912Z,99.99
2017-11-21T06:36:15.467Z,99.99
2017-11-21T06:36:56.314Z,99.99
2017-11-21T06:37:36.890Z,99.99
2017-11-21T06:38:17.422Z,99.99
2017-11-21T06:38:57.987Z,99.99
2017-11-21T06:39:38.541Z,99.99
2017-11-21T06:40:19.109Z,99.99
2017-11-21T06:40:59.669Z,99.99
2017-11-21T06:41:40.240Z,99.99
2017-11-21T06:42:20.826Z,99.99
2017-11-21T06:43:01.394Z,99.99
2017-11-21T06:43:41.961Z,99.99
2017-11-21T06:44:22.652Z,99.99
2017-11-21T06:45:03.233Z,99.99
2017-11-21T06:45:43.874Z,99.99
2017-11-21T06:46:24.534Z,99.99
2017-11-21T06:47:05.101Z,99.99
2017-11-21T06:47:45.623Z,99.99
2017-11-21T06:48:26.186Z,99.99
2017-11-21T06:49:06.809Z,99.99
2017-11-21T06:49:47.424Z,99.99
2017-11-21T06:50:28.872Z,99.99
2017-11-21T06:51:09.425Z,99.99
2017-11-21T06:51:49.955Z,99.99
2017-11-21T06:52:30.514Z,99.99
2017-11-21T06:53:11.068Z,99.99
2017-11-21T06:53:51.637Z,99.99
2017-11-21T06:54:32.190Z,99.99
2017-11-21T06:55:12.801Z,99.99
2017-11-21T06:55:53.373Z,99.99
2017-11-21T06:56:33.915Z,99.99
2017-11-21T06:57:14.479Z,99.99
2017-11-21T06:57:55.170Z,99.99
2017-11-21T06:58:35.730Z,99.99
2017-11-21T06:59:16.318Z,99.99
2017-11-21T06:59:56.868Z,99.99
2017-11-21T07:00:37.418Z,99.99
2017-11-21T07:01:18.034Z,99.99
2017-11-21T07:01:58.559Z,99.99
2017-11-21T07:02:39.159Z,99.99
2017-11-21T07:03:19.782Z,99.99
2017-11-21T07:04:00.311Z,99.99
2017-11-21T07:04:40.890Z,99.99
2017-11-21T07:05:21.476Z,99.99
2017-11-21T07:06:02.017Z,99.99
2017-11-21T07:06:42.763Z,99.99
2017-11-21T07:07:23.409Z,99.99
2017-11-21T07:08:04.003Z,99.99
2017-11-21T07:08:44.620Z,99.99
2017-11-21T07:09:25.193Z,99.99
2017-11-21T07:10:05.763Z,99.99
2017-11-21T07:10:46.333Z,99.99
2017-11-21T07:11:26.912Z,99.99
2017-11-21T07:12:07.470Z,99.99
2017-11-21T07:12:48.028Z,99.99
2017-11-21T07:13:28.600Z,99.99
2017-11-21T07:14:09.139Z,99.99
2017-11-21T07:14:49.709Z,99.99
2017-11-21T07:15:30.249Z,99.99
2017-11-21T07:16:10.816Z,99.99
2017-11-21T07:16:51.381Z,99.99
2017-11-21T07:17:31.940Z,99.99
2017-11-21T07:18:12.497Z,99.99
2017-11-21T07:18:53.075Z,99.99
2017-11-21T07:19:33.633Z,99.99
2017-11-21T07:20:14.245Z,99.99
2017-11-21T07:20:54.884Z,99.99
2017-11-21T07:21:35.453Z,99.99
2017-11-21T07:22:16.005Z,99.99
2017-11-21T07:22:56.569Z,99.99
2017-11-21T07:23:37.138Z,99.99
2017-11-21T07:24:17.707Z,99.99
2017-11-21T07:24:58.272Z,99.99
2017-11-21T07:25:38.835Z,99.99
2017-11-21T07:26:19.377Z,99.99
2017-11-21T07:27:00.004Z,99.99
2017-11-21T07:27:40.598Z,99.99
2017-11-21T07:28:21.169Z,99.99
2017-11-21T07:29:01.744Z,99.99
2017-11-21T07:29:42.311Z,99.99
2017-11-21T07:30:22.855Z,99.99
2017-11-21T07:31:03.386Z,99.99
2017-11-21T07:31:43.969Z,99.99
2017-11-21T07:32:24.531Z,99.99
2017-11-21T07:33:05.102Z,99.99
2017-11-21T07:33:45.782Z,99.99
2017-11-21T07:34:26.390Z,99.99
2017-11-21T07:35:06.959Z,99.99
2017-11-21T07:35:47.535Z,99.99
2017-11-21T07:36:28.155Z,99.99
2017-11-21T07:37:08.724Z,99.99
2017-11-21T07:37:49.304Z,99.99
2017-11-21T07:38:29.871Z,99.99
2017-11-21T07:39:10.405Z,99.99
2017-11-21T07:39:50.991Z,99.99
2017-11-21T07:40:31.561Z,99.99
2017-11-21T07:41:12.126Z,99.99
2017-11-21T07:41:52.720Z,99.99
2017-11-21T07:42:33.288Z,99.99
2017-11-21T07:43:13.860Z,99.99
2017-11-21T07:43:54.426Z,99.99
2017-11-21T07:44:35.067Z,99.99
2017-11-21T07:45:15.630Z,99.99
2017-11-21T07:45:56.222Z,99.99
2017-11-21T07:46:36.793Z,99.99
2017-11-21T07:47:17.355Z,99.99
2017-11-21T07:47:57.876Z,99.99
2017-11-21T07:48:38.439Z,99.99
2017-11-21T07:49:19.082Z,99.99
2017-11-21T07:49:59.538Z,99.99
2017-11-21T07:50:40.223Z,99.99
2017-11-21T07:51:20.836Z,99.99
2017-11-21T07:52:01.454Z,99.99
2017-11-21T07:52:42.024Z,99.99
2017-11-21T07:53:22.872Z,99.99
2017-11-21T07:54:03.394Z,99.99
2017-11-21T07:54:43.912Z,99.99
2017-11-21T07:55:24.501Z,99.99
2017-11-21T07:56:05.012Z,99.99
2017-11-21T07:56:45.665Z,99.99
2017-11-21T07:57:26.238Z,99.99
2017-11-21T07:58:06.836Z,99.99
2017-11-21T07:58:47.396Z,99.99
2017-11-21T07:59:27.971Z,99.99
2017-11-21T08:00:08.534Z,99.99
2017-11-21T08:00:49.096Z,99.99
2017-11-21T08:01:29.658Z,99.99
2017-11-21T08:02:10.241Z,99.99
2017-11-21T08:02:50.813Z,99.99
2017-11-21T08:03:31.396Z,99.99
2017-11-21T08:04:11.967Z,99.99
2017-11-21T08:04:52.532Z,99.99
2017-11-21T08:05:33.088Z,99.99
2017-11-21T08:06:13.648Z,99.99
2017-11-21T08:06:54.193Z,99.99
2017-11-21T08:07:34.776Z,99.99
2017-11-21T08:08:15.350Z,99.99
2017-11-21T08:08:55.878Z,99.99
2017-11-21T08:09:36.458Z,99.99
2017-11-21T08:10:17.030Z,99.99
2017-11-21T08:10:57.608Z,99.99
2017-11-21T08:11:38.156Z,99.99
2017-11-21T08:12:18.731Z,99.99
2017-11-21T08:12:59.288Z,99.99
2017-11-21T08:13:39.839Z,99.99
2017-11-21T08:14:20.398Z,99.99
2017-11-21T08:15:00.943Z,99.99
2017-11-21T08:15:41.518Z,99.99
2017-11-21T08:16:22.066Z,99.99
2017-11-21T08:17:02.630Z,99.99
2017-11-21T08:17:43.199Z,99.99
2017-11-21T08:18:23.757Z,99.99
2017-11-21T08:19:04.369Z,99.99
2017-11-21T08:19:44.869Z,99.99
2017-11-21T08:20:25.414Z,99.99
2017-11-21T08:21:06.016Z,99.99
2017-11-21T08:21:46.523Z,99.99
2017-11-21T08:22:27.090Z,99.99
2017-11-21T08:23:07.652Z,99.99
2017-11-21T08:23:48.275Z,99.99
2017-11-21T08:24:28.822Z,99.99
2017-11-21T08:25:09.374Z,99.99
2017-11-21T08:25:49.951Z,99.99
2017-11-21T08:26:30.517Z,99.99
2017-11-21T08:27:11.080Z,99.99
2017-11-21T08:27:51.636Z,99.99
2017-11-21T08:28:32.492Z,99.99
2017-11-21T08:29:13.029Z,99.99
2017-11-21T08:29:53.601Z,99.99
2017-11-21T08:30:34.170Z,99.99
2017-11-21T08:31:14.730Z,99.99
2017-11-21T08:31:55.313Z,99.99
2017-11-21T08:32:35.868Z,99.99
2017-11-21T08:33:16.524Z,99.99
2017-11-21T08:33:57.070Z,99.99
2017-11-21T08:34:37.654Z,99.99
2017-11-21T08:35:18.550Z,99.99
2017-11-21T08:35:59.319Z,99.99
2017-11-21T08:36:40.967Z,99.99
2017-11-21T08:37:21.322Z,99.99
2017-11-21T08:38:01.931Z,99.99
2017-11-21T08:38:42.515Z,99.99
2017-11-21T08:39:23.074Z,99.99
2017-11-21T08:40:03.672Z,99.99
2017-11-21T08:40:44.241Z,99.99
2017-11-21T08:41:24.765Z,99.99
2017-11-21T08:42:05.344Z,99.99
2017-11-21T08:42:45.924Z,99.99
2017-11-21T08:43:26.717Z,99.99
2017-11-21T08:44:07.326Z,99.99
2017-11-21T08:44:47.978Z,99.99
2017-11-21T08:45:29.211Z,99.99